Tonypandy, United Kingdom
Current Conditions -  °F | °C
As of 9:50 AM on Friday 24 Oct 2014 (Local Time) from EGDX Reporting Station
Moderate Rain Moderate Rain  
Wind Chill: 14°   Ceiling: 1400
Heat Index: 14°   Visibility: 2.6mi
Dew Point: 14°   Wind: 10mph
Humidity: 100%   Direction: 270°W
Pressure: 29.91"   Gusts: NA
Location:  51.62°N, 3.45°W
Report Text: EGDX 240850Z AUTO 27009KT 4200 RA SCT002/// SCT010/// BKN014/// 14/14 Q1013
Loading
Personal Weather Stations






























Interactive Weather Map
Tropical Storm Tracking
New forecast layout! Learn more

10-Day Weather Forecast

Advertisements
Track Severe Weather on mobile